Terminal Aerodrome Forecast
Issued by NWS

Home | Current Version | Previous Version | Graphics & Text | Print | Product List | Glossary Off
Versions: 1 2 3 4 5 6 7 8 9 10 11 12 13 14 15 16 17

000
FTUS43 KGRB 261732
TAFATW
TAF
KATW 261732Z 2618/2718 26021G32KT P6SM SCT045 BKN090
     FM262200 27017KT P6SM BKN100 PROB30 2710/2714 -SHRA BKN035=

USA.gov is the U.S. government's official web portal to all federal, state and local government web resources and services.